• Join FlightAware (Why Join?)
  • Login
  • US Flag 
07:20PM EST


 

Airport Tracker/Info


-or-


 

Live Flight TrackerFlight Track Log ✈ SWA1017 ✈ 02-May-2013 ✈ KHRL - KAUS

Flight Track Log - Related Links

Times and Time Zones

All times are in EDT time to prevent confusion due to time zone crossing. See the SWA1017 flight status page for this flight to view local times or setup timezone preferences in your user account.

Time Position Orientation Groundspeed Altitude Reporting Facility
EDT Latitude Longitude Course Direction KTS MPH feet Rate Location/Type
03:01PM 26.2419 -97.6606 North 154 177 900  Level Houston Center
03:02PM 26.2900 -97.6564 North 196 226 3,200 3,120 Climbing Houston Center
03:02PM 26.3322 -97.6497 North 227 261 5,600 3,720 Climbing Houston Center
03:03PM 26.3606 -97.6469 North 280 322 7,000 3,840 Climbing Houston Center
03:03PM 26.4083 -97.6406 North 283 326 9,600 3,900 Climbing Houston Center
03:04PM 26.5036 -97.6283 North 312 359 13,400 3,720 Climbing Houston Center
03:05PM 26.5981 -97.6142 North 345 397 17,300 3,240 Climbing Houston Center
03:06PM 26.6967 -97.6025 North 359 413 20,200 2,820 Climbing Houston Center
03:07PM 26.8136 -97.5861 North 391 450 23,200 3,000 Climbing Houston Center
03:09PM 26.9258 -97.5725 North 400 460 26,500 2,760 Climbing Houston Center
03:10PM 27.0431 -97.5708 North 390 449 29,000 2,040 Climbing Houston Center
03:11PM 27.1472 -97.6081 342° North 421 484 30,800 2,100 Climbing Houston Center
03:12PM 27.2567 -97.6442 344° North 411 473 33,400 2,460 Climbing Houston Center
03:13PM 27.3875 -97.6892 343° North 413 475 35,900 1,200 Climbing Houston Center
03:14PM 27.4981 -97.7261 343° North 414 476 36,000  Climbing Houston Center
03:15PM 27.6114 -97.7633 344° North 421 484 36,000  Level Houston Center
03:16PM 27.7217 -97.8008 343° North 418 481 36,000  Level Houston Center
03:17PM 27.8336 -97.8378 344° North 420 483 36,000  Level Houston Center
03:18PM 27.9667 -97.8844 343° North 418 481 36,000  Level Houston Center
03:19PM 28.0761 -97.9200 344° North 413 475 36,000  Level Houston Center
03:20PM 28.1839 -97.9567 343° North 408 470 36,000  Level Houston Center
03:21PM 28.2831 -97.9900 344° North 403 464 36,000  Level Houston Center
03:22PM 28.4114 -98.0344 343° North 401 461 36,000  Level Houston Center
03:23PM 28.5189 -98.0708 343° North 401 461 36,000  Level Houston Center
03:24PM 28.6275 -98.1083 343° North 405 466 36,000  Level Houston Center
03:25PM 28.7492 -98.1517 343° North 412 474 36,000  Level Houston Center
03:26PM 28.8597 -98.1894 343° North 413 475 36,000  Level Houston Center
03:27PM 28.9786 -98.2297 343° North 412 474 36,000  Level Houston Center
03:28PM 29.0889 -98.2686 343° North 413 475 36,000 -540 Level Houston Center
03:29PM 29.2083 -98.3097 343° North 416 479 34,900 -2,340 Descending Houston Center
03:30PM 29.3222 -98.3492 343° North 425 489 31,200 -3,840 Descending Houston Center
03:31PM 29.4508 -98.3928 344° North 446 513 27,000 -2,760 Descending Houston Center
03:32PM 29.5522 -98.4275 343° North 440 506 25,600 -1,380 Descending Houston Center
03:33PM 29.6694 -98.4447 353° North 379 436 24,200 -1,560 Descending Houston Center
03:34PM 29.7661 -98.4200 13° North 358 412 22,400 -1,740 Descending Houston Center
03:35PM 29.8686 -98.3994 10° North 346 398 20,700 -1,740 Descending Houston Center
03:36PM 29.9597 -98.3814 10° North 331 381 18,900 -1,500 Descending Houston Center
03:37PM 30.0478 -98.3614 11° North 322 371 17,600 -1,200 Descending Houston Center
03:38PM 30.1356 -98.3397 12° North 296 341 16,500 -1,500 Descending Houston Center
03:40PM 30.2156 -98.3214 11° North 293 337 14,600 -2,460 Descending Houston Center
03:41PM 30.3083 -98.2983 12° North 321 369 11,500 -1,920 Descending Houston Center
03:42PM 30.3339 -98.2144 71° East 326 375 10,700 -1,200 Descending Houston Center
03:43PM 30.3125 -98.1094 103° East 309 356 9,100 -1,500 Descending Houston Center
03:44PM 30.2550 -98.0261 129° Southeast 308 354 7,600 -1,080 Descending Houston Center
03:45PM 30.2081 -97.9572 128° Southeast 280 322 6,900 -1,020 Descending Houston Center
03:46PM 30.1603 -97.8853 128° Southeast 265 305 5,500 -1,380 Descending Houston Center
03:47PM 30.1189 -97.8217 127° Southeast 271 312 4,100 -1,440 Descending Houston Center
03:48PM 30.0656 -97.7453 129° Southeast 274 315 2,600 -840 Descending Houston Center
03:49PM 30.0769 -97.6814 78° East 235 270 2,400 -480 Descending Houston Center
03:50PM 30.1231 -97.6772 North 163 188 1,600 -480 Descending Houston Center
03:51PM 30.1583 -97.6769 360° North 157 181 1,500 -120 Descending Houston Center
03:53PM 30.1945 -97.6699 33° Northeast  Level Estimated
04:00PM 30.1945 -97.6699 221° Southwest  Level Estimated